sensor_id;sensor_type;location;lat;lon;timestamp;pressure;altitude;pressure_sealevel;temperature;humidity
19845;BME280;10083;51.038;7.012;2023-12-07T00:01:11;104731.13;;;1.39;100.00
19845;BME280;10083;51.038;7.012;2023-12-07T00:03:39;104735.72;;;1.53;100.00
19845;BME280;10083;51.038;7.012;2023-12-07T00:06:09;104740.94;;;1.29;100.00
19845;BME280;10083;51.038;7.012;2023-12-07T00:08:37;104741.06;;;1.31;100.00
19845;BME280;10083;51.038;7.012;2023-12-07T00:11:04;104749.47;;;1.37;100.00
19845;BME280;10083;51.038;7.012;2023-12-07T00:13:32;104748.91;;;1.41;100.00
19845;BME280;10083;51.038;7.012;2023-12-07T00:16:01;104744.44;;;1.18;100.00
19845;BME280;10083;51.038;7.012;2023-12-07T00:18:29;104737.69;;;1.22;100.00
19845;BME280;10083;51.038;7.012;2023-12-07T00:20:56;104747.88;;;1.39;100.00
19845;BME280;10083;51.038;7.012;2023-12-07T00:23:24;104750.56;;;1.17;100.00
19845;BME280;10083;51.038;7.012;2023-12-07T00:25:51;104756.34;;;1.13;100.00
19845;BME280;10083;51.038;7.012;2023-12-07T00:28:19;104765.28;;;1.25;100.00
19845;BME280;10083;51.038;7.012;2023-12-07T00:30:46;104763.47;;;1.14;100.00
19845;BME280;10083;51.038;7.012;2023-12-07T00:33:16;104759.81;;;1.12;100.00
19845;BME280;10083;51.038;7.012;2023-12-07T00:35:44;104746.50;;;1.11;100.00
19845;BME280;10083;51.038;7.012;2023-12-07T00:38:11;104748.91;;;1.08;100.00
19845;BME280;10083;51.038;7.012;2023-12-07T00:40:39;104752.31;;;1.07;100.00
19845;BME280;10083;51.038;7.012;2023-12-07T00:43:07;104760.03;;;1.37;100.00
19845;BME280;10083;51.038;7.012;2023-12-07T00:45:34;104766.94;;;1.47;100.00
19845;BME280;10083;51.038;7.012;2023-12-07T00:48:02;104767.00;;;1.03;100.00
19845;BME280;10083;51.038;7.012;2023-12-07T00:50:31;104786.56;;;1.39;100.00
19845;BME280;10083;51.038;7.012;2023-12-07T00:52:59;104792.22;;;1.43;100.00
19845;BME280;10083;51.038;7.012;2023-12-07T00:55:26;104790.78;;;1.36;100.00
19845;BME280;10083;51.038;7.012;2023-12-07T00:57:53;104785.66;;;1.16;100.00
19845;BME280;10083;51.038;7.012;2023-12-07T01:00:21;104777.97;;;1.19;100.00
19845;BME280;10083;51.038;7.012;2023-12-07T01:02:49;104783.63;;;1.24;100.00
19845;BME280;10083;51.038;7.012;2023-12-07T01:05:17;104775.09;;;1.16;100.00
19845;BME280;10083;51.038;7.012;2023-12-07T01:07:46;104777.53;;;1.25;100.00
19845;BME280;10083;51.038;7.012;2023-12-07T01:10:14;104792.44;;;1.46;100.00
19845;BME280;10083;51.038;7.012;2023-12-07T01:12:42;104797.59;;;1.45;100.00
19845;BME280;10083;51.038;7.012;2023-12-07T01:15:10;104809.94;;;1.56;100.00
19845;BME280;10083;51.038;7.012;2023-12-07T01:17:40;104815.69;;;1.62;100.00
19845;BME280;10083;51.038;7.012;2023-12-07T01:20:09;104824.47;;;1.72;100.00
19845;BME280;10083;51.038;7.012;2023-12-07T01:22:39;104825.13;;;1.70;100.00
19845;BME280;10083;51.038;7.012;2023-12-07T01:25:09;104855.97;;;1.81;100.00
19845;BME280;10083;51.038;7.012;2023-12-07T01:27:36;104874.81;;;1.86;100.00
19845;BME280;10083;51.038;7.012;2023-12-07T01:30:05;104888.41;;;1.90;100.00
19845;BME280;10083;51.038;7.012;2023-12-07T01:32:32;104908.34;;;2.08;100.00
19845;BME280;10083;51.038;7.012;2023-12-07T01:35:00;104917.84;;;2.06;100.00
19845;BME280;10083;51.038;7.012;2023-12-07T01:37:28;104919.72;;;2.07;100.00
19845;BME280;10083;51.038;7.012;2023-12-07T01:39:58;104932.22;;;2.10;100.00
19845;BME280;10083;51.038;7.012;2023-12-07T01:42:27;104943.16;;;2.14;100.00
19845;BME280;10083;51.038;7.012;2023-12-07T01:44:55;104944.69;;;2.22;100.00
19845;BME280;10083;51.038;7.012;2023-12-07T01:47:22;104936.19;;;2.26;100.00
19845;BME280;10083;51.038;7.012;2023-12-07T01:49:50;104943.22;;;2.26;100.00
19845;BME280;10083;51.038;7.012;2023-12-07T01:52:18;104949.41;;;2.26;100.00
19845;BME280;10083;51.038;7.012;2023-12-07T01:54:48;104965.34;;;2.38;100.00
19845;BME280;10083;51.038;7.012;2023-12-07T01:57:15;104972.72;;;2.54;100.00
19845;BME280;10083;51.038;7.012;2023-12-07T01:59:46;104987.94;;;2.56;100.00
19845;BME280;10083;51.038;7.012;2023-12-07T02:02:13;104986.50;;;2.50;100.00
19845;BME280;10083;51.038;7.012;2023-12-07T02:04:41;104997.03;;;2.60;100.00
19845;BME280;10083;51.038;7.012;2023-12-07T02:07:11;105017.97;;;2.68;100.00
19845;BME280;10083;51.038;7.012;2023-12-07T02:09:39;105013.56;;;2.57;100.00
19845;BME280;10083;51.038;7.012;2023-12-07T02:12:07;105031.72;;;2.86;100.00
19845;BME280;10083;51.038;7.012;2023-12-07T02:14:35;105041.16;;;2.94;100.00
19845;BME280;10083;51.038;7.012;2023-12-07T02:17:10;105066.28;;;2.99;100.00
19845;BME280;10083;51.038;7.012;2023-12-07T03:03:56;105358.34;;;3.75;100.00
19845;BME280;10083;51.038;7.012;2023-12-07T03:06:23;105374.94;;;3.73;100.00
19845;BME280;10083;51.038;7.012;2023-12-07T03:08:53;105396.09;;;3.83;100.00
19845;BME280;10083;51.038;7.012;2023-12-07T03:11:21;105412.78;;;3.82;100.00
19845;BME280;10083;51.038;7.012;2023-12-07T03:13:49;105428.78;;;3.83;100.00
19845;BME280;10083;51.038;7.012;2023-12-07T03:16:16;105434.78;;;3.81;100.00
19845;BME280;10083;51.038;7.012;2023-12-07T03:18:44;105446.50;;;3.94;100.00
19845;BME280;10083;51.038;7.012;2023-12-07T03:21:13;105458.50;;;4.01;100.00
19845;BME280;10083;51.038;7.012;2023-12-07T03:23:40;105459.44;;;4.01;100.00
19845;BME280;10083;51.038;7.012;2023-12-07T03:26:08;105471.91;;;4.02;100.00
19845;BME280;10083;51.038;7.012;2023-12-07T03:28:35;105486.13;;;4.15;100.00
19845;BME280;10083;51.038;7.012;2023-12-07T03:31:03;105494.19;;;4.04;100.00
19845;BME280;10083;51.038;7.012;2023-12-07T03:33:31;105489.91;;;4.06;100.00
19845;BME280;10083;51.038;7.012;2023-12-07T03:35:58;105488.53;;;4.12;100.00
19845;BME280;10083;51.038;7.012;2023-12-07T03:38:27;105493.91;;;4.01;100.00
19845;BME280;10083;51.038;7.012;2023-12-07T03:40:55;105495.91;;;4.04;100.00
19845;BME280;10083;51.038;7.012;2023-12-07T03:43:22;105503.97;;;4.05;100.00
19845;BME280;10083;51.038;7.012;2023-12-07T03:45:50;105508.59;;;4.08;100.00
19845;BME280;10083;51.038;7.012;2023-12-07T03:48:17;105514.56;;;4.05;100.00
19845;BME280;10083;51.038;7.012;2023-12-07T03:50:45;105508.69;;;4.09;100.00
19845;BME280;10083;51.038;7.012;2023-12-07T03:53:12;105498.91;;;4.08;100.00
19845;BME280;10083;51.038;7.012;2023-12-07T03:55:41;105514.84;;;4.08;100.00
19845;BME280;10083;51.038;7.012;2023-12-07T03:58:08;105522.09;;;4.11;100.00
19845;BME280;10083;51.038;7.012;2023-12-07T04:00:36;105533.22;;;4.17;100.00
19845;BME280;10083;51.038;7.012;2023-12-07T04:03:03;105536.78;;;4.18;100.00
19845;BME280;10083;51.038;7.012;2023-12-07T04:05:31;105554.25;;;4.26;100.00
19845;BME280;10083;51.038;7.012;2023-12-07T04:08:01;105567.63;;;4.27;100.00
19845;BME280;10083;51.038;7.012;2023-12-07T04:10:30;105580.47;;;4.33;100.00
19845;BME280;10083;51.038;7.012;2023-12-07T04:13:00;105580.22;;;4.30;100.00
19845;BME280;10083;51.038;7.012;2023-12-07T04:15:27;105571.09;;;4.26;100.00
19845;BME280;10083;51.038;7.012;2023-12-07T04:17:55;105582.03;;;4.31;100.00
19845;BME280;10083;51.038;7.012;2023-12-07T04:20:22;105590.28;;;4.34;100.00
19845;BME280;10083;51.038;7.012;2023-12-07T04:22:49;105601.69;;;4.33;100.00
19845;BME280;10083;51.038;7.012;2023-12-07T04:25:17;105614.53;;;4.38;100.00
19845;BME280;10083;51.038;7.012;2023-12-07T04:27:45;105622.13;;;4.34;100.00
19845;BME280;10083;51.038;7.012;2023-12-07T04:30:14;105642.28;;;4.32;100.00
19845;BME280;10083;51.038;7.012;2023-12-07T04:32:41;105651.88;;;4.30;100.00
19845;BME280;10083;51.038;7.012;2023-12-07T04:35:08;105657.19;;;4.30;100.00
19845;BME280;10083;51.038;7.012;2023-12-07T04:37:36;105661.59;;;4.19;100.00
19845;BME280;10083;51.038;7.012;2023-12-07T04:40:04;105669.16;;;4.15;100.00
19845;BME280;10083;51.038;7.012;2023-12-07T04:42:32;105669.34;;;4.06;100.00
19845;BME280;10083;51.038;7.012;2023-12-07T04:45:02;105673.78;;;3.95;100.00
19845;BME280;10083;51.038;7.012;2023-12-07T04:47:31;105687.81;;;3.94;100.00
19845;BME280;10083;51.038;7.012;2023-12-07T04:49:59;105703.22;;;3.88;100.00
19845;BME280;10083;51.038;7.012;2023-12-07T04:52:26;105712.66;;;3.75;100.00
19845;BME280;10083;51.038;7.012;2023-12-07T04:54:54;105730.97;;;3.72;100.00
19845;BME280;10083;51.038;7.012;2023-12-07T04:57:21;105740.13;;;3.65;100.00
19845;BME280;10083;51.038;7.012;2023-12-07T04:59:48;105767.44;;;3.64;100.00
19845;BME280;10083;51.038;7.012;2023-12-07T05:02:16;105787.31;;;3.59;100.00
19845;BME280;10083;51.038;7.012;2023-12-07T05:04:45;105815.78;;;3.61;100.00
19845;BME280;10083;51.038;7.012;2023-12-07T05:07:13;105854.91;;;3.64;100.00
19845;BME280;10083;51.038;7.012;2023-12-07T05:09:40;105891.63;;;3.70;100.00
19845;BME280;10083;51.038;7.012;2023-12-07T05:12:08;105942.91;;;3.70;100.00
19845;BME280;10083;51.038;7.012;2023-12-07T05:14:36;105983.09;;;3.64;100.00
19845;BME280;10083;51.038;7.012;2023-12-07T05:17:03;106004.94;;;3.62;100.00
19845;BME280;10083;51.038;7.012;2023-12-07T05:19:31;106035.94;;;3.63;100.00
19845;BME280;10083;51.038;7.012;2023-12-07T05:22:00;106062.47;;;3.63;100.00
19845;BME280;10083;51.038;7.012;2023-12-07T05:24:28;106077.16;;;3.59;100.00
19845;BME280;10083;51.038;7.012;2023-12-07T05:26:58;106101.19;;;3.61;100.00
19845;BME280;10083;51.038;7.012;2023-12-07T05:29:25;106122.50;;;3.62;100.00
19845;BME280;10083;51.038;7.012;2023-12-07T05:31:53;106160.28;;;3.60;100.00
19845;BME280;10083;51.038;7.012;2023-12-07T05:34:21;106191.16;;;3.59;100.00
19845;BME280;10083;51.038;7.012;2023-12-07T05:36:48;106207.34;;;3.62;100.00
19845;BME280;10083;51.038;7.012;2023-12-07T05:39:17;106232.13;;;3.63;100.00
19845;BME280;10083;51.038;7.012;2023-12-07T05:41:45;106256.50;;;3.59;100.00
19845;BME280;10083;51.038;7.012;2023-12-07T05:44:13;106255.34;;;3.47;100.00
19845;BME280;10083;51.038;7.012;2023-12-07T05:46:47;106297.94;;;3.40;100.00
19845;BME280;10083;51.038;7.012;2023-12-07T05:49:14;106305.88;;;3.40;100.00
19845;BME280;10083;51.038;7.012;2023-12-07T05:51:42;106322.53;;;3.47;100.00
19845;BME280;10083;51.038;7.012;2023-12-07T05:54:09;106337.19;;;3.44;100.00
19845;BME280;10083;51.038;7.012;2023-12-07T05:56:38;106341.13;;;3.39;100.00
19845;BME280;10083;51.038;7.012;2023-12-07T05:59:06;106352.34;;;3.36;100.00
19845;BME280;10083;51.038;7.012;2023-12-07T06:01:33;106348.03;;;3.28;100.00
19845;BME280;10083;51.038;7.012;2023-12-07T06:04:01;106337.00;;;3.24;100.00
19845;BME280;10083;51.038;7.012;2023-12-07T06:06:28;106330.31;;;3.18;100.00
19845;BME280;10083;51.038;7.012;2023-12-07T06:08:55;106340.28;;;3.21;100.00
19845;BME280;10083;51.038;7.012;2023-12-07T06:11:23;106341.72;;;3.17;100.00
19845;BME280;10083;51.038;7.012;2023-12-07T06:13:52;106360.69;;;3.22;100.00
19845;BME280;10083;51.038;7.012;2023-12-07T06:16:20;106357.44;;;3.16;100.00
19845;BME280;10083;51.038;7.012;2023-12-07T06:18:48;106359.03;;;3.05;100.00
19845;BME280;10083;51.038;7.012;2023-12-07T06:21:15;106354.72;;;2.97;100.00
19845;BME280;10083;51.038;7.012;2023-12-07T06:23:43;106366.84;;;3.04;100.00
19845;BME280;10083;51.038;7.012;2023-12-07T06:26:12;106357.56;;;2.90;100.00
19845;BME280;10083;51.038;7.012;2023-12-07T06:28:39;106352.56;;;2.93;100.00
19845;BME280;10083;51.038;7.012;2023-12-07T06:31:11;106376.56;;;2.86;100.00
19845;BME280;10083;51.038;7.012;2023-12-07T06:33:40;106383.72;;;2.79;100.00
19845;BME280;10083;51.038;7.012;2023-12-07T06:36:09;106364.34;;;2.61;100.00
19845;BME280;10083;51.038;7.012;2023-12-07T06:38:37;106439.03;;;2.67;100.00
19845;BME280;10083;51.038;7.012;2023-12-07T06:41:04;106474.69;;;2.70;100.00
19845;BME280;10083;51.038;7.012;2023-12-07T06:43:32;106474.69;;;2.62;100.00
19845;BME280;10083;51.038;7.012;2023-12-07T06:46:01;106474.56;;;2.52;100.00
19845;BME280;10083;51.038;7.012;2023-12-07T06:48:33;106500.09;;;2.51;100.00
19845;BME280;10083;51.038;7.012;2023-12-07T06:51:03;106535.91;;;2.56;100.00
19845;BME280;10083;51.038;7.012;2023-12-07T06:53:30;106549.16;;;2.65;100.00
19845;BME280;10083;51.038;7.012;2023-12-07T06:55:58;106601.44;;;2.59;100.00
19845;BME280;10083;51.038;7.012;2023-12-07T06:58:26;106647.53;;;2.61;100.00
19845;BME280;10083;51.038;7.012;2023-12-07T07:00:54;106669.31;;;2.58;100.00
19845;BME280;10083;51.038;7.012;2023-12-07T07:03:21;106694.84;;;2.58;100.00
19845;BME280;10083;51.038;7.012;2023-12-07T07:05:50;106715.06;;;2.57;100.00
19845;BME280;10083;51.038;7.012;2023-12-07T07:08:17;106726.94;;;2.61;100.00
19845;BME280;10083;51.038;7.012;2023-12-07T07:10:45;106761.53;;;2.71;100.00
19845;BME280;10083;51.038;7.012;2023-12-07T07:13:12;106767.41;;;2.60;100.00
19845;BME280;10083;51.038;7.012;2023-12-07T07:15:43;106761.47;;;2.54;100.00
19845;BME280;10083;51.038;7.012;2023-12-07T07:18:10;106778.59;;;2.57;100.00
19845;BME280;10083;51.038;7.012;2023-12-07T07:20:38;106783.13;;;2.58;100.00
19845;BME280;10083;51.038;7.012;2023-12-07T07:23:07;106813.50;;;2.62;100.00
19845;BME280;10083;51.038;7.012;2023-12-07T07:25:35;106846.44;;;2.72;100.00
19845;BME280;10083;51.038;7.012;2023-12-07T07:28:02;106837.19;;;2.60;100.00
19845;BME280;10083;51.038;7.012;2023-12-07T07:30:30;106864.47;;;2.68;100.00
19845;BME280;10083;51.038;7.012;2023-12-07T07:32:57;106881.28;;;2.68;100.00
19845;BME280;10083;51.038;7.012;2023-12-07T07:35:24;106889.28;;;2.77;100.00
19845;BME280;10083;51.038;7.012;2023-12-07T07:37:53;106893.63;;;2.77;100.00
19845;BME280;10083;51.038;7.012;2023-12-07T07:40:22;106915.13;;;2.80;100.00
19845;BME280;10083;51.038;7.012;2023-12-07T07:42:50;106923.59;;;2.84;100.00
19845;BME280;10083;51.038;7.012;2023-12-07T07:45:18;106908.59;;;2.76;100.00
19845;BME280;10083;51.038;7.012;2023-12-07T07:47:46;106896.03;;;2.82;100.00
19845;BME280;10083;51.038;7.012;2023-12-07T07:50:14;106905.09;;;2.93;100.00
19845;BME280;10083;51.038;7.012;2023-12-07T07:52:45;106872.22;;;2.91;100.00
19845;BME280;10083;51.038;7.012;2023-12-07T07:55:12;106847.47;;;2.90;100.00
19845;BME280;10083;51.038;7.012;2023-12-07T07:57:42;106827.03;;;2.89;100.00
19845;BME280;10083;51.038;7.012;2023-12-07T08:00:10;106823.97;;;3.02;100.00
19845;BME280;10083;51.038;7.012;2023-12-07T08:02:40;106781.84;;;2.88;100.00
19845;BME280;10083;51.038;7.012;2023-12-07T08:05:08;106761.78;;;2.90;100.00
19845;BME280;10083;51.038;7.012;2023-12-07T08:07:39;106768.63;;;2.96;100.00
19845;BME280;10083;51.038;7.012;2023-12-07T08:10:08;106758.81;;;2.87;100.00
19845;BME280;10083;51.038;7.012;2023-12-07T08:12:36;106775.50;;;2.94;100.00
19845;BME280;10083;51.038;7.012;2023-12-07T08:15:06;106780.81;;;3.03;100.00
19845;BME280;10083;51.038;7.012;2023-12-07T08:17:37;106780.06;;;3.04;100.00
19845;BME280;10083;51.038;7.012;2023-12-07T08:20:07;106757.16;;;3.04;100.00
19845;BME280;10083;51.038;7.012;2023-12-07T08:22:38;106740.66;;;3.15;100.00
19845;BME280;10083;51.038;7.012;2023-12-07T08:25:07;106700.91;;;3.07;100.00
19845;BME280;10083;51.038;7.012;2023-12-07T08:27:36;106644.63;;;3.09;100.00
19845;BME280;10083;51.038;7.012;2023-12-07T08:30:07;106611.13;;;3.18;100.00
19845;BME280;10083;51.038;7.012;2023-12-07T08:32:36;106565.94;;;3.26;100.00
19845;BME280;10083;51.038;7.012;2023-12-07T08:35:05;106516.38;;;3.25;100.00
19845;BME280;10083;51.038;7.012;2023-12-07T08:37:33;106460.75;;;3.25;100.00
19845;BME280;10083;51.038;7.012;2023-12-07T08:40:01;106391.09;;;3.26;100.00
19845;BME280;10083;51.038;7.012;2023-12-07T08:42:28;106357.03;;;3.39;100.00
19845;BME280;10083;51.038;7.012;2023-12-07T08:44:57;106308.97;;;3.44;100.00
19845;BME280;10083;51.038;7.012;2023-12-07T08:47:26;106283.41;;;3.45;100.00
19845;BME280;10083;51.038;7.012;2023-12-07T08:49:56;106216.88;;;3.42;100.00
19845;BME280;10083;51.038;7.012;2023-12-07T08:52:23;106154.31;;;3.44;100.00
19845;BME280;10083;51.038;7.012;2023-12-07T08:54:51;106094.31;;;3.44;100.00
19845;BME280;10083;51.038;7.012;2023-12-07T08:57:20;106030.94;;;3.37;100.00
19845;BME280;10083;51.038;7.012;2023-12-07T08:59:47;106000.91;;;3.47;100.00
19845;BME280;10083;51.038;7.012;2023-12-07T09:02:15;105971.00;;;3.58;100.00
19845;BME280;10083;51.038;7.012;2023-12-07T09:04:44;105974.19;;;3.64;100.00
19845;BME280;10083;51.038;7.012;2023-12-07T09:07:15;105908.19;;;3.67;100.00
19845;BME280;10083;51.038;7.012;2023-12-07T09:09:46;105847.75;;;3.63;100.00
19845;BME280;10083;51.038;7.012;2023-12-07T09:12:14;105748.34;;;3.58;100.00
19845;BME280;10083;51.038;7.012;2023-12-07T09:14:41;105693.75;;;3.60;100.00
19845;BME280;10083;51.038;7.012;2023-12-07T09:17:09;105645.47;;;3.74;100.00
19845;BME280;10083;51.038;7.012;2023-12-07T09:19:37;105597.22;;;3.78;100.00
19845;BME280;10083;51.038;7.012;2023-12-07T09:22:09;105544.84;;;3.76;100.00
19845;BME280;10083;51.038;7.012;2023-12-07T09:24:40;105502.44;;;3.97;100.00
19845;BME280;10083;51.038;7.012;2023-12-07T09:27:07;105459.69;;;4.04;100.00
19845;BME280;10083;51.038;7.012;2023-12-07T09:29:36;105358.91;;;4.04;100.00
19845;BME280;10083;51.038;7.012;2023-12-07T09:32:05;105190.75;;;4.14;100.00
19845;BME280;10083;51.038;7.012;2023-12-07T09:34:33;105142.31;;;4.17;100.00
19845;BME280;10083;51.038;7.012;2023-12-07T09:37:09;105092.59;;;4.26;100.00
19845;BME280;10083;51.038;7.012;2023-12-07T09:39:38;105038.94;;;4.30;100.00
19845;BME280;10083;51.038;7.012;2023-12-07T09:42:06;104985.69;;;4.40;100.00
19845;BME280;10083;51.038;7.012;2023-12-07T09:44:35;104933.25;;;4.49;100.00
19845;BME280;10083;51.038;7.012;2023-12-07T09:47:03;104859.84;;;4.36;100.00
19845;BME280;10083;51.038;7.012;2023-12-07T09:49:31;104790.97;;;4.51;100.00
19845;BME280;10083;51.038;7.012;2023-12-07T09:51:59;104710.44;;;4.50;100.00
19845;BME280;10083;51.038;7.012;2023-12-07T09:54:34;104638.59;;;4.47;100.00
19845;BME280;10083;51.038;7.012;2023-12-07T09:57:02;104580.00;;;4.72;100.00
19845;BME280;10083;51.038;7.012;2023-12-07T09:59:30;104525.13;;;4.43;100.00
19845;BME280;10083;51.038;7.012;2023-12-07T10:02:00;104440.56;;;4.49;100.00
19845;BME280;10083;51.038;7.012;2023-12-07T10:04:28;104370.88;;;4.52;100.00
19845;BME280;10083;51.038;7.012;2023-12-07T10:07:02;104278.91;;;4.38;100.00
19845;BME280;10083;51.038;7.012;2023-12-07T10:09:39;104211.00;;;4.56;100.00
19845;BME280;10083;51.038;7.012;2023-12-07T10:12:08;104145.47;;;4.71;100.00
19845;BME280;10083;51.038;7.012;2023-12-07T10:14:51;104073.16;;;4.59;100.00
19845;BME280;10083;51.038;7.012;2023-12-07T10:17:43;104004.75;;;4.87;100.00
19845;BME280;10083;51.038;7.012;2023-12-07T10:20:12;103906.81;;;4.76;100.00
19845;BME280;10083;51.038;7.012;2023-12-07T10:22:43;103826.13;;;5.08;100.00
19845;BME280;10083;51.038;7.012;2023-12-07T10:25:21;103792.69;;;4.93;100.00
19845;BME280;10083;51.038;7.012;2023-12-07T10:27:55;103737.09;;;4.79;100.00
19845;BME280;10083;51.038;7.012;2023-12-07T10:30:23;103647.06;;;4.83;100.00
19845;BME280;10083;51.038;7.012;2023-12-07T10:32:51;103587.94;;;4.87;100.00
19845;BME280;10083;51.038;7.012;2023-12-07T10:35:24;103555.19;;;5.06;100.00
19845;BME280;10083;51.038;7.012;2023-12-07T10:37:55;103533.03;;;5.06;100.00
19845;BME280;10083;51.038;7.012;2023-12-07T10:40:32;103497.56;;;5.67;100.00
19845;BME280;10083;51.038;7.012;2023-12-07T10:43:08;103458.41;;;5.41;100.00
19845;BME280;10083;51.038;7.012;2023-12-07T10:45:42;103392.59;;;5.34;100.00
19845;BME280;10083;51.038;7.012;2023-12-07T10:48:25;103312.22;;;5.39;100.00
19845;BME280;10083;51.038;7.012;2023-12-07T10:51:06;103291.66;;;5.35;100.00
19845;BME280;10083;51.038;7.012;2023-12-07T10:53:39;103240.81;;;5.72;100.00
19845;BME280;10083;51.038;7.012;2023-12-07T10:56:24;103186.28;;;5.83;100.00
19845;BME280;10083;51.038;7.012;2023-12-07T10:59:04;103173.28;;;5.67;100.00
19845;BME280;10083;51.038;7.012;2023-12-07T11:01:38;103147.19;;;5.32;100.00
19845;BME280;10083;51.038;7.012;2023-12-07T11:04:11;103110.09;;;5.59;100.00
19845;BME280;10083;51.038;7.012;2023-12-07T11:06:39;103080.78;;;5.07;100.00
19845;BME280;10083;51.038;7.012;2023-12-07T11:09:09;103034.13;;;5.38;100.00
19845;BME280;10083;51.038;7.012;2023-12-07T11:11:42;103033.69;;;5.52;100.00
19845;BME280;10083;51.038;7.012;2023-12-07T11:14:13;103009.22;;;5.88;100.00
19845;BME280;10083;51.038;7.012;2023-12-07T11:16:43;103025.56;;;5.47;100.00
19845;BME280;10083;51.038;7.012;2023-12-07T11:19:50;103000.97;;;5.54;100.00
19845;BME280;10083;51.038;7.012;2023-12-07T11:22:23;103020.13;;;5.44;100.00
19845;BME280;10083;51.038;7.012;2023-12-07T11:24:57;102977.47;;;6.21;100.00
19845;BME280;10083;51.038;7.012;2023-12-07T11:27:35;103020.41;;;6.05;100.00
19845;BME280;10083;51.038;7.012;2023-12-07T11:30:06;102976.34;;;6.74;100.00
19845;BME280;10083;51.038;7.012;2023-12-07T11:32:36;103023.28;;;6.41;100.00
19845;BME280;10083;51.038;7.012;2023-12-07T11:35:04;103058.47;;;5.77;100.00
19845;BME280;10083;51.038;7.012;2023-12-07T11:38:03;103042.50;;;6.03;100.00
19845;BME280;10083;51.038;7.012;2023-12-07T11:40:35;103095.09;;;5.86;100.00
19845;BME280;10083;51.038;7.012;2023-12-07T11:43:05;103056.84;;;6.66;100.00
19845;BME280;10083;51.038;7.012;2023-12-07T11:45:46;103123.28;;;6.06;100.00
19845;BME280;10083;51.038;7.012;2023-12-07T11:48:16;103115.91;;;6.24;100.00
19845;BME280;10083;51.038;7.012;2023-12-07T11:50:59;103123.50;;;7.28;100.00
19845;BME280;10083;51.038;7.012;2023-12-07T11:53:28;103131.94;;;7.77;100.00
19845;BME280;10083;51.038;7.012;2023-12-07T11:56:08;103181.53;;;8.36;100.00
19845;BME280;10083;51.038;7.012;2023-12-07T11:58:44;103285.16;;;8.50;100.00
19845;BME280;10083;51.038;7.012;2023-12-07T12:01:12;103287.81;;;9.63;100.00
19845;BME280;10083;51.038;7.012;2023-12-07T12:03:39;103359.59;;;9.82;100.00
19845;BME280;10083;51.038;7.012;2023-12-07T12:06:07;103433.66;;;9.83;100.00
19845;BME280;10083;51.038;7.012;2023-12-07T12:08:36;103417.44;;;10.59;100.00
19845;BME280;10083;51.038;7.012;2023-12-07T12:11:06;103457.31;;;10.87;100.00
19845;BME280;10083;51.038;7.012;2023-12-07T12:13:34;103549.47;;;10.15;100.00
19845;BME280;10083;51.038;7.012;2023-12-07T12:16:05;103494.31;;;11.58;100.00
19845;BME280;10083;51.038;7.012;2023-12-07T12:18:43;103502.41;;;12.13;100.00
19845;BME280;10083;51.038;7.012;2023-12-07T12:21:10;103518.69;;;12.26;100.00
19845;BME280;10083;51.038;7.012;2023-12-07T12:23:47;103592.03;;;11.21;100.00
19845;BME280;10083;51.038;7.012;2023-12-07T12:26:15;103606.84;;;11.02;100.00
19845;BME280;10083;51.038;7.012;2023-12-07T12:28:45;103611.53;;;11.12;100.00
19845;BME280;10083;51.038;7.012;2023-12-07T12:31:15;103667.13;;;10.07;100.00
19845;BME280;10083;51.038;7.012;2023-12-07T12:33:53;103609.94;;;10.80;100.00
19845;BME280;10083;51.038;7.012;2023-12-07T12:36:21;103619.91;;;11.29;100.00
19845;BME280;10083;51.038;7.012;2023-12-07T12:38:49;103596.00;;;11.89;100.00
19845;BME280;10083;51.038;7.012;2023-12-07T12:41:18;103555.94;;;13.38;100.00
19845;BME280;10083;51.038;7.012;2023-12-07T12:43:51;103553.88;;;13.11;100.00
19845;BME280;10083;51.038;7.012;2023-12-07T12:46:21;103534.03;;;14.00;100.00
19845;BME280;10083;51.038;7.012;2023-12-07T12:48:53;103548.09;;;13.63;100.00
19845;BME280;10083;51.038;7.012;2023-12-07T12:51:23;103554.47;;;13.72;100.00
19845;BME280;10083;51.038;7.012;2023-12-07T12:53:53;103551.44;;;14.46;100.00
19845;BME280;10083;51.038;7.012;2023-12-07T12:56:21;103586.13;;;13.96;100.00
19845;BME280;10083;51.038;7.012;2023-12-07T12:58:49;103649.19;;;13.30;100.00
19845;BME280;10083;51.038;7.012;2023-12-07T13:01:17;103708.63;;;12.85;100.00
19845;BME280;10083;51.038;7.012;2023-12-07T13:03:50;103763.56;;;12.47;100.00
19845;BME280;10083;51.038;7.012;2023-12-07T13:06:18;103804.53;;;12.34;100.00
19845;BME280;10083;51.038;7.012;2023-12-07T13:08:47;103882.00;;;12.11;100.00
19845;BME280;10083;51.038;7.012;2023-12-07T13:11:20;103912.50;;;11.35;100.00
19845;BME280;10083;51.038;7.012;2023-12-07T13:13:47;103913.41;;;12.58;100.00
19845;BME280;10083;51.038;7.012;2023-12-07T13:16:15;103951.94;;;11.75;100.00
19845;BME280;10083;51.038;7.012;2023-12-07T13:18:44;103981.88;;;10.87;100.00
19845;BME280;10083;51.038;7.012;2023-12-07T13:21:13;104033.72;;;10.58;100.00
19845;BME280;10083;51.038;7.012;2023-12-07T13:23:41;104049.50;;;9.92;100.00
19845;BME280;10083;51.038;7.012;2023-12-07T13:26:12;104048.16;;;10.61;100.00
19845;BME280;10083;51.038;7.012;2023-12-07T13:28:47;104016.22;;;11.00;100.00
19845;BME280;10083;51.038;7.012;2023-12-07T13:31:14;104011.97;;;11.10;100.00
19845;BME280;10083;51.038;7.012;2023-12-07T13:33:44;103995.78;;;11.40;100.00
19845;BME280;10083;51.038;7.012;2023-12-07T13:36:21;103979.69;;;11.75;100.00
19845;BME280;10083;51.038;7.012;2023-12-07T13:38:51;103948.03;;;11.62;100.00
19845;BME280;10083;51.038;7.012;2023-12-07T13:41:20;103906.13;;;12.99;100.00
19845;BME280;10083;51.038;7.012;2023-12-07T13:43:48;103870.59;;;13.79;100.00